Time;durP1;ratioP1;P1;durP2;ratioP2;P2;SDS_P1;SDS_P2;PMS_P1;PMS_P2;Temp;Humidity;BMP_temperature;BMP_pressure;BME280_temperature;BME280_humidity;BME280_pressure;Samples;Min_cycle;Max_cycle;Signal;HPM_P1;HPM_P2
2022/12/30 00:00:13;;;;;;;;;;;7.40;99.90;;;;;;5041466;28;19995;-77
2022/12/30 00:02:38;;;;;;;;;;;7.40;99.90;;;;;;5043550;28;20458;-72
2022/12/30 00:05:04;;;;;;;;;;;7.40;99.90;;;;;;5034693;28;19917;-73
2022/12/30 00:07:29;;;;;;;;;;;7.40;99.90;;;;;;5042044;28;19923;-75
2022/12/30 00:09:55;;;;;;;;;;;7.40;99.90;;;;;;5036092;28;19909;-72
2022/12/30 00:34:26;;;;;;;;;;;7.40;99.90;;;;;;5031872;28;19916;-74
2022/12/30 00:36:52;;;;;;;;;;;7.40;99.90;;;;;;5040499;28;19917;-75
2022/12/30 00:39:17;;;;;;;;;;;7.40;99.90;;;;;;5034950;28;20445;-77
2022/12/30 00:44:28;;;;;;;;;;;7.40;99.90;;;;;;5003396;28;20007;-76
2022/12/30 00:46:54;;;;;;;;;;;7.40;99.90;;;;;;5036617;28;20053;-76
2022/12/30 00:57:33;;;;;;;;;;;7.40;99.90;;;;;;5043873;28;19919;-76
2022/12/30 00:59:58;;;;;;;;;;;7.40;99.90;;;;;;5039026;28;19913;-76
2022/12/30 01:02:24;;;;;;;;;;;7.40;99.90;;;;;;5036310;28;19939;-73
2022/12/30 01:04:49;;;;;;;;;;;7.40;99.90;;;;;;5033409;28;19920;-76
2022/12/30 01:07:15;;;;;;;;;;;7.40;99.90;;;;;;5043135;28;19913;-75
2022/12/30 01:09:40;;;;;;;;;;;7.40;99.90;;;;;;5042419;28;19989;-77
2022/12/30 01:12:09;;;;;;;;;;;7.50;99.90;;;;;;5042907;28;19912;-74
2022/12/30 01:14:37;;;;;;;;;;;7.60;99.90;;;;;;5040963;28;19967;-73
2022/12/30 01:17:03;;;;;;;;;;;7.60;99.90;;;;;;5049131;28;19969;-72
2022/12/30 01:19:29;;;;;;;;;;;7.60;99.90;;;;;;5051426;28;19908;-75
2022/12/30 01:21:54;;;;;;;;;;;7.60;99.90;;;;;;5043787;28;19998;-75
2022/12/30 01:24:20;;;;;;;;;;;7.60;99.90;;;;;;5047885;28;19970;-76
2022/12/30 01:26:45;;;;;;;;;;;7.60;99.90;;;;;;5039254;28;19927;-76
2022/12/30 01:29:10;;;;;;;;;;;7.50;99.90;;;;;;5039351;28;19920;-74
2022/12/30 01:31:36;;;;;;;;;;;7.60;99.90;;;;;;5041006;28;19913;-76
2022/12/30 01:34:01;;;;;;;;;;;7.60;99.90;;;;;;5037529;28;19944;-72
2022/12/30 01:36:27;;;;;;;;;;;7.60;99.90;;;;;;5042321;28;19935;-73
2022/12/30 01:38:52;;;;;;;;;;;7.50;99.90;;;;;;5034635;28;19921;-74
2022/12/30 01:41:18;;;;;;;;;;;7.50;99.90;;;;;;5037464;28;19924;-74
2022/12/30 01:43:45;;;;;;;;;;;7.50;99.90;;;;;;5043347;28;19974;-76
2022/12/30 01:46:14;;;;;;;;;;;7.50;99.90;;;;;;5025701;28;20012;-77
2022/12/30 01:48:39;;;;;;;;;;;7.40;99.90;;;;;;5028600;28;19913;-75
2022/12/30 01:51:08;;;;;;;;;;;7.40;99.90;;;;;;5041374;28;19912;-75
2022/12/30 01:53:44;;;;;;;;;;;7.30;99.90;;;;;;5032699;28;19920;-78
2022/12/30 01:56:17;;;;;;;;;;;7.30;99.90;;;;;;5037037;28;19983;-78
2022/12/30 01:58:49;;;;;;;;;;;7.30;99.90;;;;;;5036459;28;20642;-76
2022/12/30 02:01:14;;;;;;;;;;;7.30;99.90;;;;;;5037351;28;20020;-73
2022/12/30 02:03:44;;;;;;;;;;;7.30;99.90;;;;;;5031074;28;20023;-77
2022/12/30 02:06:10;;;;;;;;;;;7.30;99.90;;;;;;5042051;28;19916;-74
2022/12/30 02:08:36;;;;;;;;;;;7.30;99.90;;;;;;5033678;28;19943;-78
2022/12/30 02:11:03;;;;;;;;;;;7.30;99.90;;;;;;5035414;28;19913;-74
2022/12/30 02:13:29;;;;;;;;;;;7.30;99.90;;;;;;5029882;28;19928;-75
2022/12/30 02:16:13;;;;;;;;;;;7.20;99.90;;;;;;5042020;28;19908;-74
2022/12/30 02:18:57;;;;;;;;;;;7.20;99.90;;;;;;5031732;28;19919;-75
2022/12/30 02:21:22;;;;;;;;;;;7.20;99.90;;;;;;5027451;28;19920;-76
2022/12/30 02:24:13;;;;;;;;;;;7.20;99.90;;;;;;5033462;28;19925;-75
2022/12/30 02:26:57;;;;;;;;;;;7.20;99.90;;;;;;5040951;28;19919;-76
2022/12/30 02:29:34;;;;;;;;;;;7.20;99.90;;;;;;5034545;28;19992;-75
2022/12/30 02:32:20;;;;;;;;;;;7.20;99.90;;;;;;5029465;28;19956;-77
2022/12/30 02:34:45;;;;;;;;;;;7.20;99.90;;;;;;5006494;28;19966;-75
2022/12/30 02:37:18;;;;;;;;;;;7.20;99.90;;;;;;5042121;28;20571;-73
2022/12/30 02:39:55;;;;;;;;;;;7.20;99.90;;;;;;5044522;28;19956;-76
2022/12/30 02:45:07;;;;;;;;;;;7.10;99.90;;;;;;5036052;28;20089;-73
2022/12/30 02:47:39;;;;;;;;;;;7.10;99.90;;;;;;5030646;28;20618;-72
2022/12/30 02:52:52;;;;;;;;;;;7.00;99.90;;;;;;5042622;28;19972;-74
2022/12/30 02:55:18;;;;;;;;;;;7.00;99.90;;;;;;5032947;28;20106;-74
2022/12/30 02:57:44;;;;;;;;;;;7.00;99.90;;;;;;5042266;28;19912;-74
2022/12/30 03:05:59;;;;;;;;;;;7.10;99.90;;;;;;5032392;28;19920;-76
2022/12/30 03:08:47;;;;;;;;;;;7.10;99.90;;;;;;5045179;28;19912;-75
2022/12/30 03:11:17;;;;;;;;;;;7.00;99.90;;;;;;5041536;28;20027;-73
2022/12/30 03:13:50;;;;;;;;;;;6.90;99.90;;;;;;5036214;28;19955;-74
2022/12/30 03:16:23;;;;;;;;;;;6.90;99.90;;;;;;5038126;28;19916;-73
2022/12/30 03:18:49;;;;;;;;;;;6.80;99.90;;;;;;5035801;28;19917;-75
2022/12/30 03:21:15;;;;;;;;;;;6.90;99.90;;;;;;5038478;28;19913;-74
2022/12/30 03:29:16;;;;;;;;;;;6.80;99.90;;;;;;5040227;28;19943;-74
2022/12/30 03:31:42;;;;;;;;;;;6.80;99.90;;;;;;5041492;28;19940;-77
2022/12/30 03:34:07;;;;;;;;;;;6.80;99.90;;;;;;5042612;28;19944;-75
2022/12/30 03:36:36;;;;;;;;;;;6.80;99.90;;;;;;5043569;28;20011;-76
2022/12/30 03:39:05;;;;;;;;;;;6.80;99.90;;;;;;5040754;28;19921;-75
2022/12/30 03:41:31;;;;;;;;;;;6.70;99.90;;;;;;5036829;28;19920;-76
2022/12/30 03:43:56;;;;;;;;;;;6.70;99.90;;;;;;5037941;28;19912;-78
2022/12/30 03:46:26;;;;;;;;;;;6.70;99.90;;;;;;5052891;28;20007;-77
2022/12/30 03:48:52;;;;;;;;;;;6.70;99.90;;;;;;5056715;28;19920;-74
2022/12/30 03:51:17;;;;;;;;;;;6.70;99.90;;;;;;5043728;28;19925;-77
2022/12/30 03:53:43;;;;;;;;;;;6.60;99.90;;;;;;5052715;28;19979;-75
2022/12/30 03:56:08;;;;;;;;;;;6.60;99.90;;;;;;5056296;28;20054;-74
2022/12/30 03:58:34;;;;;;;;;;;6.60;99.90;;;;;;5055492;28;20248;-78
2022/12/30 04:00:59;;;;;;;;;;;6.60;99.90;;;;;;5053410;28;20539;-76
2022/12/30 04:03:25;;;;;;;;;;;6.60;99.90;;;;;;5055932;28;20000;-77
2022/12/30 04:05:54;;;;;;;;;;;6.60;99.90;;;;;;5056478;28;19910;-74
2022/12/30 04:08:20;;;;;;;;;;;6.60;99.90;;;;;;5051726;28;19971;-74
2022/12/30 04:10:45;;;;;;;;;;;6.60;99.90;;;;;;5054784;28;19909;-75
2022/12/30 04:13:11;;;;;;;;;;;6.50;99.90;;;;;;5045440;28;20384;-76
2022/12/30 04:15:36;;;;;;;;;;;6.50;99.90;;;;;;5046635;28;19913;-74
2022/12/30 04:18:01;;;;;;;;;;;6.50;99.90;;;;;;5042407;28;19913;-76
2022/12/30 04:20:27;;;;;;;;;;;6.50;99.90;;;;;;5042043;28;19958;-77
2022/12/30 04:22:55;;;;;;;;;;;6.50;99.90;;;;;;5042556;28;19910;-72
2022/12/30 04:25:20;;;;;;;;;;;6.50;99.90;;;;;;5044974;28;19924;-76
2022/12/30 04:27:46;;;;;;;;;;;6.60;99.90;;;;;;5043064;28;20319;-75
2022/12/30 04:30:12;;;;;;;;;;;6.50;99.90;;;;;;5040929;28;19932;-74
2022/12/30 04:32:37;;;;;;;;;;;6.50;99.90;;;;;;5038483;28;19919;-77
2022/12/30 04:35:03;;;;;;;;;;;6.50;99.90;;;;;;5039670;28;19959;-77
2022/12/30 04:37:28;;;;;;;;;;;6.40;99.90;;;;;;5044168;28;19909;-74
2022/12/30 04:39:54;;;;;;;;;;;6.50;99.90;;;;;;5043308;28;19916;-79
2022/12/30 04:42:19;;;;;;;;;;;6.40;99.90;;;;;;5053983;28;20785;-76
2022/12/30 04:44:45;;;;;;;;;;;6.40;99.90;;;;;;5044572;28;20430;-76
2022/12/30 04:47:10;;;;;;;;;;;6.40;99.90;;;;;;5043173;28;20339;-76
2022/12/30 04:49:36;;;;;;;;;;;6.40;99.90;;;;;;5045308;28;20011;-75
2022/12/30 04:52:01;;;;;;;;;;;6.40;99.90;;;;;;5041517;28;19913;-77
2022/12/30 04:54:27;;;;;;;;;;;6.30;99.90;;;;;;5038158;28;19938;-77
2022/12/30 04:56:52;;;;;;;;;;;6.20;99.90;;;;;;5039358;28;19910;-74
2022/12/30 04:59:18;;;;;;;;;;;6.20;99.90;;;;;;5045568;28;19917;-75
2022/12/30 05:01:43;;;;;;;;;;;6.20;99.90;;;;;;5042733;28;20019;-77
2022/12/30 05:04:08;;;;;;;;;;;6.20;99.90;;;;;;5044796;28;20644;-76
2022/12/30 05:06:34;;;;;;;;;;;6.10;99.90;;;;;;5039521;28;19988;-76
2022/12/30 05:08:59;;;;;;;;;;;6.10;99.90;;;;;;5050054;28;19913;-75
2022/12/30 05:11:27;;;;;;;;;;;6.00;99.90;;;;;;5042809;28;22267;-74
2022/12/30 05:13:52;;;;;;;;;;;6.00;99.90;;;;;;5037120;28;19920;-75
2022/12/30 05:16:18;;;;;;;;;;;6.00;99.90;;;;;;5036072;28;19917;-76
2022/12/30 05:18:43;;;;;;;;;;;6.10;99.90;;;;;;5061701;28;20008;-75
2022/12/30 05:21:08;;;;;;;;;;;6.10;99.90;;;;;;5039649;28;19944;-74
2022/12/30 05:26:18;;;;;;;;;;;6.10;99.90;;;;;;5043369;28;19967;-76
2022/12/30 05:28:45;;;;;;;;;;;6.10;99.90;;;;;;5046776;28;19924;-75
2022/12/30 05:31:11;;;;;;;;;;;6.10;99.90;;;;;;5046905;28;19909;-76
2022/12/30 05:33:37;;;;;;;;;;;6.10;99.90;;;;;;5043407;28;19917;-75
2022/12/30 05:36:02;;;;;;;;;;;6.10;99.90;;;;;;5038804;28;19936;-77
2022/12/30 05:38:28;;;;;;;;;;;6.10;99.90;;;;;;5042507;28;19935;-71
2022/12/30 05:40:53;;;;;;;;;;;6.10;99.90;;;;;;5041844;28;19916;-78
2022/12/30 05:43:19;;;;;;;;;;;6.10;99.90;;;;;;5040872;28;20025;-76
2022/12/30 05:45:44;;;;;;;;;;;6.10;99.90;;;;;;5032663;28;21532;-77
2022/12/30 05:48:10;;;;;;;;;;;6.10;99.90;;;;;;5039109;28;19967;-76
2022/12/30 05:50:35;;;;;;;;;;;6.10;99.90;;;;;;5041454;28;19928;-76
2022/12/30 05:53:00;;;;;;;;;;;6.10;99.90;;;;;;5035032;28;19952;-76
2022/12/30 05:55:26;;;;;;;;;;;6.10;99.90;;;;;;5045747;28;20383;-76
2022/12/30 05:57:51;;;;;;;;;;;6.20;99.90;;;;;;5045245;28;20482;-75
2022/12/30 06:00:17;;;;;;;;;;;6.20;99.90;;;;;;5037148;28;20007;-76
2022/12/30 06:02:42;;;;;;;;;;;6.20;99.90;;;;;;5043605;28;19913;-77
2022/12/30 06:05:08;;;;;;;;;;;6.20;99.90;;;;;;5061711;28;19942;-75
2022/12/30 06:07:34;;;;;;;;;;;6.20;99.90;;;;;;5055178;28;19923;-79
2022/12/30 06:09:59;;;;;;;;;;;6.30;99.90;;;;;;5041113;28;20537;-76
2022/12/30 06:12:25;;;;;;;;;;;6.30;99.90;;;;;;5046846;28;19912;-77
2022/12/30 06:14:50;;;;;;;;;;;6.30;99.90;;;;;;5051756;28;19956;-74
2022/12/30 06:17:15;;;;;;;;;;;6.30;99.90;;;;;;5030324;28;20044;-76
2022/12/30 06:19:41;;;;;;;;;;;6.30;99.90;;;;;;5042885;28;19929;-76
2022/12/30 06:22:07;;;;;;;;;;;6.30;99.90;;;;;;5040528;28;20549;-75
2022/12/30 06:24:32;;;;;;;;;;;6.30;99.90;;;;;;5043020;28;19963;-78
2022/12/30 06:26:58;;;;;;;;;;;6.30;99.90;;;;;;5041693;28;19912;-78
2022/12/30 06:29:23;;;;;;;;;;;6.30;99.90;;;;;;5042639;28;20023;-76
2022/12/30 06:31:48;;;;;;;;;;;6.30;99.90;;;;;;5036552;28;19999;-76
2022/12/30 06:34:14;;;;;;;;;;;6.30;99.90;;;;;;5033310;28;19920;-75
2022/12/30 06:36:39;;;;;;;;;;;6.30;99.90;;;;;;5039053;28;19909;-76
2022/12/30 06:39:05;;;;;;;;;;;6.30;99.90;;;;;;5039602;28;19917;-76
2022/12/30 06:41:30;;;;;;;;;;;6.30;99.90;;;;;;5042504;28;19980;-75
2022/12/30 06:43:56;;;;;;;;;;;6.30;99.90;;;;;;5038015;28;19980;-77
2022/12/30 06:46:21;;;;;;;;;;;6.40;99.90;;;;;;5045656;28;19912;-74
2022/12/30 06:48:47;;;;;;;;;;;6.40;99.90;;;;;;5040148;28;20426;-73
2022/12/30 06:51:12;;;;;;;;;;;6.40;99.90;;;;;;5042237;28;19939;-75
2022/12/30 06:53:37;;;;;;;;;;;6.40;99.90;;;;;;5040976;28;20175;-76
2022/12/30 06:56:03;;;;;;;;;;;6.40;99.90;;;;;;5032101;28;19921;-75
2022/12/30 06:58:29;;;;;;;;;;;6.40;99.90;;;;;;5040578;28;19978;-74
2022/12/30 07:00:54;;;;;;;;;;;6.40;99.90;;;;;;5049200;28;19913;-75
2022/12/30 07:03:20;;;;;;;;;;;6.50;99.90;;;;;;5045664;28;19912;-77
2022/12/30 07:05:45;;;;;;;;;;;6.50;99.90;;;;;;5047490;28;19962;-74
2022/12/30 07:08:11;;;;;;;;;;;6.50;99.90;;;;;;5037474;28;20283;-75
2022/12/30 07:10:37;;;;;;;;;;;6.50;99.90;;;;;;5049187;28;19913;-75
2022/12/30 07:13:02;;;;;;;;;;;6.50;99.90;;;;;;5060103;28;20374;-75
2022/12/30 07:15:28;;;;;;;;;;;6.50;99.90;;;;;;5032850;28;19916;-76
2022/12/30 07:17:53;;;;;;;;;;;6.50;99.90;;;;;;5032643;28;20000;-77
2022/12/30 07:20:19;;;;;;;;;;;6.60;99.90;;;;;;5041944;28;20456;-77
2022/12/30 07:22:44;;;;;;;;;;;6.60;99.90;;;;;;5045933;28;19913;-75
2022/12/30 07:25:10;;;;;;;;;;;6.60;99.90;;;;;;5047755;28;19931;-74
2022/12/30 07:27:35;;;;;;;;;;;6.60;99.90;;;;;;5039189;28;19976;-76
2022/12/30 07:30:01;;;;;;;;;;;6.70;99.90;;;;;;5042348;28;19924;-76
2022/12/30 07:32:27;;;;;;;;;;;6.70;99.90;;;;;;5042558;28;19908;-75
2022/12/30 07:34:52;;;;;;;;;;;6.70;99.90;;;;;;5044686;28;19935;-75
2022/12/30 07:37:17;;;;;;;;;;;6.80;99.90;;;;;;5043485;28;20382;-78
2022/12/30 07:39:43;;;;;;;;;;;6.80;99.90;;;;;;5044169;28;19908;-76
2022/12/30 07:42:08;;;;;;;;;;;6.80;99.90;;;;;;5041248;28;19913;-76
2022/12/30 07:44:37;;;;;;;;;;;6.90;99.90;;;;;;5037934;28;19921;-77
2022/12/30 07:47:03;;;;;;;;;;;7.00;99.90;;;;;;5041273;28;19908;-77
2022/12/30 07:49:28;;;;;;;;;;;7.00;99.90;;;;;;5044640;28;20441;-75
2022/12/30 07:51:53;;;;;;;;;;;7.00;99.90;;;;;;5042296;28;20408;-75
2022/12/30 07:54:19;;;;;;;;;;;7.00;99.90;;;;;;5040161;28;19913;-75
2022/12/30 07:56:44;;;;;;;;;;;7.00;99.90;;;;;;5035421;28;19909;-78
2022/12/30 07:59:11;;;;;;;;;;;7.00;99.90;;;;;;5046147;28;19916;-74
2022/12/30 08:01:37;;;;;;;;;;;7.00;99.90;;;;;;5047589;28;20319;-76
2022/12/30 08:04:03;;;;;;;;;;;7.00;99.90;;;;;;5046122;28;19974;-75
2022/12/30 08:06:28;;;;;;;;;;;7.00;99.90;;;;;;5044346;28;19909;-77
2022/12/30 08:08:54;;;;;;;;;;;7.00;99.90;;;;;;5043490;28;19914;-75
2022/12/30 08:11:19;;;;;;;;;;;7.10;99.90;;;;;;5041803;28;19919;-75
2022/12/30 08:13:45;;;;;;;;;;;7.10;99.90;;;;;;5046617;28;20011;-75
2022/12/30 08:16:11;;;;;;;;;;;7.10;99.90;;;;;;5042186;28;19944;-76
2022/12/30 08:18:37;;;;;;;;;;;7.10;99.90;;;;;;5045561;28;20562;-75
2022/12/30 08:21:04;;;;;;;;;;;7.10;99.90;;;;;;5048125;28;19931;-74
2022/12/30 08:23:30;;;;;;;;;;;7.10;99.90;;;;;;5050117;28;20414;-74
2022/12/30 08:25:55;;;;;;;;;;;7.10;99.90;;;;;;5048127;28;19924;-75
2022/12/30 08:28:21;;;;;;;;;;;7.20;99.90;;;;;;5045723;28;19967;-75
2022/12/30 08:30:46;;;;;;;;;;;7.20;99.90;;;;;;5043253;28;19909;-76
2022/12/30 08:33:12;;;;;;;;;;;7.20;99.90;;;;;;5045219;28;19909;-76
2022/12/30 08:35:37;;;;;;;;;;;7.20;99.90;;;;;;5043654;28;20425;-74
2022/12/30 08:38:03;;;;;;;;;;;7.20;99.90;;;;;;5042153;28;19913;-75
2022/12/30 08:40:30;;;;;;;;;;;7.30;99.90;;;;;;5036988;28;19942;-74
2022/12/30 08:42:56;;;;;;;;;;;7.30;99.90;;;;;;5045550;28;19932;-74
2022/12/30 08:45:21;;;;;;;;;;;7.30;99.90;;;;;;5047007;28;20292;-74
2022/12/30 08:47:47;;;;;;;;;;;7.40;99.90;;;;;;5029109;28;19909;-77
2022/12/30 08:50:13;;;;;;;;;;;7.40;99.90;;;;;;5034546;28;20502;-74
2022/12/30 08:52:38;;;;;;;;;;;7.40;99.90;;;;;;5034785;28;20449;-74
2022/12/30 08:55:04;;;;;;;;;;;7.40;99.90;;;;;;5030127;28;19952;-75
2022/12/30 08:57:29;;;;;;;;;;;7.30;99.90;;;;;;5047687;28;20596;-78
2022/12/30 08:59:55;;;;;;;;;;;7.40;99.90;;;;;;5060234;28;19912;-75
2022/12/30 09:02:20;;;;;;;;;;;7.30;99.90;;;;;;5047320;28;19913;-77
2022/12/30 09:04:46;;;;;;;;;;;7.40;99.90;;;;;;5054535;28;19925;-78
2022/12/30 09:07:11;;;;;;;;;;;7.30;99.90;;;;;;5041065;28;20008;-76
2022/12/30 09:09:37;;;;;;;;;;;7.40;99.90;;;;;;5047343;28;20205;-75
2022/12/30 09:12:04;;;;;;;;;;;7.40;99.90;;;;;;5048286;28;19924;-77
2022/12/30 09:14:29;;;;;;;;;;;7.40;99.90;;;;;;5040610;28;19976;-77
2022/12/30 09:16:55;;;;;;;;;;;7.40;99.90;;;;;;5047889;28;20009;-75
2022/12/30 09:19:20;;;;;;;;;;;7.40;99.90;;;;;;5048580;28;20003;-78
2022/12/30 09:21:46;;;;;;;;;;;7.40;99.90;;;;;;5042434;28;19914;-77
2022/12/30 09:24:11;;;;;;;;;;;7.50;99.90;;;;;;5049360;28;20008;-74
2022/12/30 09:26:37;;;;;;;;;;;7.50;99.90;;;;;;5047434;28;19917;-76
2022/12/30 09:29:02;;;;;;;;;;;7.40;99.90;;;;;;5033239;28;19915;-75
2022/12/30 09:31:28;;;;;;;;;;;7.50;99.90;;;;;;5047027;28;20004;-75
2022/12/30 09:33:53;;;;;;;;;;;7.50;99.90;;;;;;5035051;28;19913;-79
2022/12/30 09:36:19;;;;;;;;;;;7.50;99.90;;;;;;5039987;28;20004;-76
2022/12/30 09:38:44;;;;;;;;;;;7.50;99.90;;;;;;5040939;28;19952;-79
2022/12/30 09:41:11;;;;;;;;;;;7.50;99.90;;;;;;5046413;28;19913;-76
2022/12/30 09:43:55;;;;;;;;;;;7.50;99.90;;;;;;5043463;28;20446;-80
2022/12/30 09:46:24;;;;;;;;;;;7.50;99.90;;;;;;5043451;28;19958;-79
2022/12/30 09:48:54;;;;;;;;;;;7.60;99.90;;;;;;5035133;28;19971;-79
2022/12/30 09:51:23;;;;;;;;;;;7.60;99.90;;;;;;5049527;28;19985;-78
2022/12/30 09:53:52;;;;;;;;;;;7.60;99.90;;;;;;5042197;28;19952;-77
2022/12/30 09:56:25;;;;;;;;;;;7.60;99.90;;;;;;5045403;28;19968;-76
2022/12/30 09:58:51;;;;;;;;;;;7.70;99.90;;;;;;5042763;28;19935;-77
2022/12/30 10:01:29;;;;;;;;;;;7.60;99.90;;;;;;5038946;28;19939;-75
2022/12/30 10:03:56;;;;;;;;;;;7.70;99.90;;;;;;5042982;28;19924;-79
2022/12/30 10:06:31;;;;;;;;;;;7.70;99.90;;;;;;5040832;28;19920;-77
2022/12/30 10:09:15;;;;;;;;;;;7.80;99.90;;;;;;5044617;28;19915;-78
2022/12/30 10:12:01;;;;;;;;;;;7.80;99.90;;;;;;5043525;28;19915;-79
2022/12/30 10:14:29;;;;;;;;;;;7.80;99.90;;;;;;5045552;28;20002;-80
2022/12/30 10:17:10;;;;;;;;;;;7.80;99.90;;;;;;5047619;28;19913;-82
2022/12/30 10:19:35;;;;;;;;;;;7.90;99.90;;;;;;5049892;28;20414;-79
2022/12/30 10:22:05;;;;;;;;;;;7.80;99.90;;;;;;5047752;28;19987;-76
2022/12/30 10:24:39;;;;;;;;;;;7.90;99.90;;;;;;5039486;28;19914;-76
2022/12/30 10:27:16;;;;;;;;;;;7.90;99.90;;;;;;5047173;28;20390;-75
2022/12/30 10:29:43;;;;;;;;;;;7.90;99.90;;;;;;5048285;28;19951;-75
2022/12/30 10:32:15;;;;;;;;;;;7.90;99.90;;;;;;5051407;28;19919;-79
2022/12/30 10:34:42;;;;;;;;;;;8.00;99.90;;;;;;5049139;28;19957;-79
2022/12/30 10:37:11;;;;;;;;;;;8.00;99.90;;;;;;5049284;28;19913;-76
2022/12/30 10:39:40;;;;;;;;;;;8.00;99.90;;;;;;5042550;28;19913;-79
2022/12/30 10:42:26;;;;;;;;;;;8.00;99.90;;;;;;5055430;28;20361;-78
2022/12/30 10:45:05;;;;;;;;;;;8.00;99.90;;;;;;5045204;28;19923;-79
2022/12/30 10:47:40;;;;;;;;;;;8.00;99.90;;;;;;5045413;28;19916;-78
2022/12/30 10:50:24;;;;;;;;;;;8.00;99.90;;;;;;5048756;28;20457;-81
2022/12/30 10:52:50;;;;;;;;;;;8.00;99.90;;;;;;5038291;28;19914;-78
2022/12/30 10:55:24;;;;;;;;;;;8.10;99.90;;;;;;5049381;28;19971;-77
2022/12/30 10:57:51;;;;;;;;;;;8.10;99.90;;;;;;5039606;28;19917;-73
2022/12/30 11:00:16;;;;;;;;;;;8.10;99.90;;;;;;5047173;28;19909;-77
2022/12/30 11:02:47;;;;;;;;;;;8.10;99.90;;;;;;5043120;28;19908;-77
2022/12/30 11:05:33;;;;;;;;;;;8.10;99.90;;;;;;5043473;28;19990;-79
2022/12/30 11:07:59;;;;;;;;;;;8.20;99.90;;;;;;5047036;28;19913;-75
2022/12/30 11:10:26;;;;;;;;;;;8.20;99.90;;;;;;5045398;28;19940;-79
2022/12/30 11:15:50;;;;;;;;;;;8.20;99.90;;;;;;5050602;28;20066;-81
2022/12/30 11:18:16;;;;;;;;;;;8.30;99.90;;;;;;5055158;28;19909;-77
2022/12/30 11:20:42;;;;;;;;;;;8.30;99.90;;;;;;5055634;28;19954;-76
2022/12/30 11:23:26;;;;;;;;;;;8.30;99.90;;;;;;5045094;28;19966;-74
2022/12/30 11:25:52;;;;;;;;;;;8.30;99.90;;;;;;5057930;28;19912;-77
2022/12/30 11:28:20;;;;;;;;;;;8.30;99.90;;;;;;5048386;28;20164;-76
2022/12/30 11:30:54;;;;;;;;;;;8.40;99.90;;;;;;5064927;28;19904;-78
2022/12/30 11:33:19;;;;;;;;;;;8.40;99.90;;;;;;5056337;28;19919;-79
2022/12/30 11:35:46;;;;;;;;;;;8.50;99.90;;;;;;5056956;28;20426;-81
2022/12/30 11:38:27;;;;;;;;;;;8.50;99.90;;;;;;5046420;28;19917;-78
2022/12/30 11:40:53;;;;;;;;;;;8.50;99.90;;;;;;5053377;28;19909;-77
2022/12/30 11:43:19;;;;;;;;;;;8.60;99.90;;;;;;5042876;28;20026;-76
2022/12/30 11:45:54;;;;;;;;;;;8.60;99.90;;;;;;5041450;28;20014;-78
2022/12/30 11:48:28;;;;;;;;;;;8.70;99.90;;;;;;5041460;28;19913;-79
2022/12/30 11:50:53;;;;;;;;;;;8.70;99.90;;;;;;5045244;28;19919;-77
2022/12/30 11:53:20;;;;;;;;;;;8.70;99.90;;;;;;5036176;28;19956;-76
2022/12/30 11:55:50;;;;;;;;;;;8.70;99.90;;;;;;5044609;28;20485;-78
2022/12/30 11:58:17;;;;;;;;;;;8.70;99.90;;;;;;5045469;28;19913;-78
2022/12/30 12:00:42;;;;;;;;;;;8.70;99.90;;;;;;5042068;28;19913;-78
2022/12/30 12:03:15;;;;;;;;;;;8.70;99.90;;;;;;5045204;28;19917;-77
2022/12/30 12:05:42;;;;;;;;;;;8.80;99.90;;;;;;5050954;28;19917;-74
2022/12/30 12:08:26;;;;;;;;;;;8.70;99.90;;;;;;5047301;28;19995;-76
2022/12/30 12:10:54;;;;;;;;;;;8.80;99.90;;;;;;5048224;28;19913;-79
2022/12/30 12:13:28;;;;;;;;;;;8.80;99.90;;;;;;5044751;28;20389;-76
2022/12/30 12:15:56;;;;;;;;;;;8.80;99.90;;;;;;5046220;28;19959;-77
2022/12/30 12:18:33;;;;;;;;;;;8.90;99.90;;;;;;5040086;28;20723;-78
2022/12/30 12:21:08;;;;;;;;;;;8.90;99.90;;;;;;5044474;28;19929;-78
2022/12/30 12:23:52;;;;;;;;;;;9.00;99.90;;;;;;5041474;28;20353;-77
2022/12/30 12:26:19;;;;;;;;;;;9.00;99.90;;;;;;5048328;28;19927;-78
2022/12/30 12:28:46;;;;;;;;;;;9.10;99.90;;;;;;5045533;28;19944;-77
2022/12/30 12:31:23;;;;;;;;;;;9.00;99.90;;;;;;5048185;28;20534;-76
2022/12/30 12:34:03;;;;;;;;;;;9.10;99.90;;;;;;5037722;28;19921;-74
2022/12/30 12:36:47;;;;;;;;;;;9.10;99.90;;;;;;5048293;28;20345;-80
2022/12/30 12:39:41;;;;;;;;;;;9.10;99.90;;;;;;5041641;28;20024;-78
2022/12/30 12:42:09;;;;;;;;;;;9.20;99.90;;;;;;5043397;28;20394;-76
2022/12/30 12:44:53;;;;;;;;;;;9.30;99.90;;;;;;5047185;28;20430;-80
2022/12/30 12:47:37;;;;;;;;;;;9.30;99.90;;;;;;5037063;28;19913;-76
2022/12/30 12:50:21;;;;;;;;;;;9.40;99.90;;;;;;5043911;28;19913;-78
2022/12/30 12:53:19;;;;;;;;;;;9.50;99.90;;;;;;5042495;28;19917;-76
2022/12/30 12:55:59;;;;;;;;;;;9.50;99.90;;;;;;5026809;28;19909;-74
2022/12/30 12:58:31;;;;;;;;;;;9.60;99.90;;;;;;5047607;28;19913;-72
2022/12/30 13:01:10;;;;;;;;;;;9.60;99.90;;;;;;5036507;28;19916;-74
2022/12/30 13:03:54;;;;;;;;;;;9.60;99.90;;;;;;5039301;28;19996;-75
2022/12/30 13:06:28;;;;;;;;;;;9.70;99.90;;;;;;5040853;28;19917;-73
2022/12/30 13:08:59;;;;;;;;;;;9.70;99.90;;;;;;5037751;28;19913;-77
2022/12/30 13:11:40;;;;;;;;;;;9.70;99.90;;;;;;5029854;28;19913;-77
2022/12/30 13:14:24;;;;;;;;;;;9.80;99.90;;;;;;5039039;28;20375;-72
2022/12/30 13:16:53;;;;;;;;;;;9.90;99.90;;;;;;5037813;28;19921;-74
2022/12/30 13:19:20;;;;;;;;;;;9.90;99.90;;;;;;5043617;28;19913;-78
2022/12/30 13:21:47;;;;;;;;;;;10.00;99.90;;;;;;5045805;28;19917;-73
2022/12/30 13:24:20;;;;;;;;;;;10.00;99.90;;;;;;5042465;28;19921;-76
2022/12/30 13:26:45;;;;;;;;;;;10.00;99.90;;;;;;5051478;28;19935;-73
2022/12/30 13:29:12;;;;;;;;;;;10.10;99.90;;;;;;5044668;28;19912;-73
2022/12/30 13:31:54;;;;;;;;;;;10.10;99.90;;;;;;5040999;28;20074;-73
2022/12/30 13:34:20;;;;;;;;;;;10.20;99.90;;;;;;5043812;28;19916;-73
2022/12/30 13:37:04;;;;;;;;;;;10.20;99.90;;;;;;5045522;28;19922;-72
2022/12/30 13:39:38;;;;;;;;;;;10.20;99.90;;;;;;5044354;28;19908;-75
2022/12/30 13:42:22;;;;;;;;;;;10.30;99.90;;;;;;5041786;28;19909;-72
2022/12/30 13:44:48;;;;;;;;;;;10.30;99.90;;;;;;5044214;28;19928;-74
2022/12/30 13:47:26;;;;;;;;;;;10.50;99.90;;;;;;5031546;28;19913;-72
2022/12/30 13:49:51;;;;;;;;;;;10.60;99.90;;;;;;5051667;28;19999;-72
2022/12/30 13:52:22;;;;;;;;;;;10.70;99.90;;;;;;5037279;28;20861;-74
2022/12/30 13:54:57;;;;;;;;;;;10.70;99.90;;;;;;5041465;28;20022;-72
2022/12/30 13:57:35;;;;;;;;;;;10.90;99.90;;;;;;5036002;28;19908;-73
2022/12/30 14:00:19;;;;;;;;;;;10.90;99.90;;;;;;5041976;28;20355;-74
2022/12/30 14:02:47;;;;;;;;;;;11.00;99.90;;;;;;5041380;28;19919;-73
2022/12/30 14:05:31;;;;;;;;;;;11.20;99.90;;;;;;5040198;28;20720;-73
2022/12/30 14:07:57;;;;;;;;;;;11.20;99.90;;;;;;5042782;28;19928;-72
2022/12/30 14:10:22;;;;;;;;;;;11.30;99.90;;;;;;5047078;28;19971;-72
2022/12/30 14:12:54;;;;;;;;;;;11.50;99.90;;;;;;5042083;28;19978;-72
2022/12/30 14:15:37;;;;;;;;;;;11.50;99.90;;;;;;5043587;28;19912;-73
2022/12/30 14:18:13;;;;;;;;;;;11.60;99.90;;;;;;5037540;28;19923;-72
2022/12/30 14:20:39;;;;;;;;;;;11.70;99.90;;;;;;5044295;28;19909;-74
2022/12/30 14:23:05;;;;;;;;;;;11.80;99.90;;;;;;5035283;28;20597;-72
2022/12/30 14:25:34;;;;;;;;;;;11.80;99.90;;;;;;5046924;28;19916;-74
2022/12/30 14:28:01;;;;;;;;;;;12.00;99.90;;;;;;5040610;28;19948;-75
2022/12/30 14:30:31;;;;;;;;;;;12.10;99.90;;;;;;5038680;28;19931;-75
2022/12/30 14:33:15;;;;;;;;;;;12.10;99.90;;;;;;5039499;28;19971;-73
2022/12/30 14:35:53;;;;;;;;;;;12.20;99.90;;;;;;5043875;28;19909;-72
2022/12/30 14:38:23;;;;;;;;;;;12.30;99.90;;;;;;5042366;28;19916;-72
2022/12/30 14:41:03;;;;;;;;;;;12.40;99.90;;;;;;5042731;28;19936;-74
2022/12/30 14:43:29;;;;;;;;;;;12.50;99.90;;;;;;5042053;28;19916;-74
2022/12/30 14:46:13;;;;;;;;;;;12.60;99.90;;;;;;5039126;28;20003;-74
2022/12/30 14:48:59;;;;;;;;;;;12.70;99.90;;;;;;5029627;28;19959;-73
2022/12/30 14:51:25;;;;;;;;;;;13.00;99.90;;;;;;5015833;28;19909;-74
2022/12/30 14:53:50;;;;;;;;;;;13.10;99.90;;;;;;5040984;28;20332;-72
2022/12/30 14:56:20;;;;;;;;;;;13.20;99.90;;;;;;5033692;28;19909;-73
2022/12/30 14:58:46;;;;;;;;;;;13.20;99.90;;;;;;5034969;28;19917;-71
2022/12/30 15:01:12;;;;;;;;;;;13.40;99.90;;;;;;5033240;28;20484;-75
2022/12/30 15:03:37;;;;;;;;;;;13.70;99.90;;;;;;5031811;28;19924;-75
2022/12/30 15:06:03;;;;;;;;;;;13.80;99.90;;;;;;5031874;28;19929;-72
2022/12/30 15:08:32;;;;;;;;;;;13.90;99.90;;;;;;5041513;28;20068;-73
2022/12/30 15:11:02;;;;;;;;;;;14.00;99.90;;;;;;5036305;28;20293;-74
2022/12/30 15:13:45;;;;;;;;;;;14.20;99.90;;;;;;5034586;28;20062;-75
2022/12/30 15:16:18;;;;;;;;;;;14.30;99.90;;;;;;5027142;28;19975;-75
2022/12/30 15:18:48;;;;;;;;;;;14.40;99.90;;;;;;5034639;28;19925;-72
2022/12/30 15:21:30;;;;;;;;;;;14.50;99.90;;;;;;5038552;28;19917;-74
2022/12/30 15:23:55;;;;;;;;;;;14.80;99.90;;;;;;5041745;28;19938;-75
2022/12/30 15:26:21;;;;;;;;;;;15.00;99.90;;;;;;5040984;28;19990;-74
2022/12/30 15:28:46;;;;;;;;;;;15.10;99.90;;;;;;5032054;28;19948;-75
2022/12/30 15:31:19;;;;;;;;;;;15.10;99.90;;;;;;5050284;28;19909;-76
2022/12/30 15:33:54;;;;;;;;;;;15.20;99.90;;;;;;5051107;28;19917;-73